ADDS TAF Board (Experimental) INFO Settings
IDs: Format: Expanded Condensed

KSEA - Seattle-Tacoma Intl, WA, US

Issued at 1511 UTC 01 Oct 2016
Updated at 1711 UTC 01 Oct 2016
Time1653Z 01/18Z 01/19Z 01/20Z 01/21Z 01/22Z 01/23Z 02/00Z 02/01Z 02/02Z 02/03Z 02/04Z 02/05Z 02/06Z
Type OBS PRVL
  [TEMP]  
PRVL PRVL PRVL PRVL PRVL PRVL PRVL PRVL PRVL PRVL PRVL PRVL
VIS 10 >6 >6 >6 >6 >6 >6 >6 >6 >6 >6 >6 >6 >6
CIG 70 70
  [40]  
50 50 50 50 50 50 50 50 50 50 90 90
Cover BKN BKN
  [OVC]  
OVC OVC OVC OVC OVC OVC OVC OVC OVC OVC BKN BKN
FltCat VFR VFR
  [VFR]  
VFR VFR VFR VFR VFR VFR VFR VFR VFR VFR VFR VFR
WX -- --
  [-SHRA]  
-SHRA -SHRA -SHRA -SHRA -SHRA -SHRA -SHRA -SHRA -SHRA -SHRA -- --
WDir 160 160
[160]
190 190 190 190 190 190 160 160 160 160 140 140
WSpd 6 8
  [8]  
12 12 12 12 12 12 6 6 6 6 3 3
WGst -- --
  [--]  
-- -- -- -- -- -- -- -- -- -- -- --
R16/34
XWnd 2 3 -2 -2 -2 -2 -2 -2 2 2 2 2 2 2
XGst -- 0 -- -- -- -- -- -- -- -- -- -- -- --
HWnd 6 8 12 12 12 12 12 12 6 6 6 6 2 2
HGst -- 0 -- -- -- -- -- -- -- -- -- -- -- --

Raw TAF
KSEA 011511Z 0115/0218 16008KT P6SM SCT040 BKN070 BKN150
  TEMPO 0116/0119 -SHRA SCT025 BKN040 OVC070
  FM011900 19012KT P6SM -SHRA SCT025 OVC050
  FM020100 16006KT P6SM -SHRA BKN050 OVC090
  FM020500 14003KT P6SM SCT050 BKN090


Raw METAR
KSEA 011653Z 16006KT 10SM FEW020 SCT040 BKN070 13/07 A2994 RMK AO2 SLP144 T01330072
KSEA 011553Z 15007KT 10SM FEW040 BKN070 BKN150 12/07 A2994 RMK AO2 SLP145 T01170067
KSEA 011453Z 14005KT 10SM FEW040 BKN070 BKN150 12/07 A2993 RMK AO2 SLP141 T01170072 58004

METAR Board
Radar Display
Forecast Discussion

TAF Board Legend

Potential Impact
Threat None Slight Moderate High
Visibility (sm) ≥5.1 5.1>X≥3 3>X≥1 <1
Ceiling (100 ft) ≥30.1 30.1>X≥10 10>X≥5 <5
Wind Speed (kt) <10 10≤X<20 20≤X<30 ≥30
Wind Gust (kt) <15 15≤X<25 25≤X<35 ≥35
Weather No Wx Reported VCTS,-TS,-FZRA,SN TS,FZRA +TS,+FZRA,+SN